createdAt,value
2023-03-20T00:02:41.563Z,25.67
2023-03-20T00:05:33.634Z,25.73
2023-03-20T00:08:22.791Z,24.83
2023-03-20T00:11:26.933Z,25.83
2023-03-20T00:14:18.504Z,26.02
2023-03-20T00:17:12.133Z,27.00
2023-03-20T00:20:01.083Z,26.48
2023-03-20T00:22:51.798Z,25.92
2023-03-20T00:25:41.545Z,26.17
2023-03-20T00:28:40.938Z,26.67
2023-03-20T00:31:32.285Z,28.05
2023-03-20T00:34:24.126Z,26.90
2023-03-20T00:37:13.252Z,26.42
2023-03-20T00:40:04.324Z,27.17
2023-03-20T00:42:59.500Z,27.17
2023-03-20T00:45:48.270Z,27.55
2023-03-20T00:48:43.928Z,26.73
2023-03-20T00:51:32.573Z,27.02
2023-03-20T00:54:21.490Z,28.02
2023-03-20T00:57:16.161Z,27.98
2023-03-20T01:00:08.413Z,27.95
2023-03-20T01:02:59.092Z,28.02
2023-03-20T01:05:48.229Z,27.33
2023-03-20T01:08:37.345Z,27.83
2023-03-20T01:11:26.559Z,28.83
2023-03-20T01:14:18.065Z,27.20
2023-03-20T01:17:07.158Z,28.83
2023-03-20T01:19:56.023Z,28.52
2023-03-20T01:22:45.582Z,27.55
2023-03-20T01:25:34.821Z,28.25
2023-03-20T01:28:25.340Z,28.48
2023-03-20T01:31:16.959Z,28.25
2023-03-20T01:34:06.310Z,27.65
2023-03-20T01:36:58.993Z,28.48
2023-03-20T01:39:47.780Z,27.95
2023-03-20T01:42:37.034Z,27.13
2023-03-20T01:45:31.231Z,28.40
2023-03-20T01:48:23.855Z,28.90
2023-03-20T01:51:12.878Z,28.25
2023-03-20T01:54:08.454Z,29.45
2023-03-20T01:57:05.443Z,28.88
2023-03-20T02:00:02.001Z,30.13
2023-03-20T02:02:53.101Z,28.25
2023-03-20T02:06:03.521Z,29.80
2023-03-20T02:09:12.554Z,29.45
2023-03-20T02:12:06.007Z,28.50
2023-03-20T02:14:55.012Z,28.92
2023-03-20T02:17:58.379Z,30.20
2023-03-20T02:21:03.555Z,28.60
2023-03-20T02:24:25.537Z,28.30
2023-03-20T02:27:25.358Z,27.95
2023-03-20T02:30:41.384Z,27.80
2023-03-20T02:33:52.083Z,29.10
2023-03-20T02:37:32.894Z,28.98
2023-03-20T02:40:33.657Z,28.52
2023-03-20T02:43:28.363Z,29.17
2023-03-20T02:46:28.058Z,27.63
2023-03-20T02:49:28.622Z,27.50
2023-03-20T02:52:27.176Z,28.05
2023-03-20T02:55:22.925Z,28.05
2023-03-20T02:58:16.853Z,29.92
2023-03-20T03:01:12.099Z,28.10
2023-03-20T03:04:05.262Z,28.00
2023-03-20T03:06:56.044Z,28.17
2023-03-20T03:09:50.423Z,28.75
2023-03-20T03:12:44.502Z,28.45
2023-03-20T03:15:38.062Z,28.13
2023-03-20T03:18:28.140Z,29.42
2023-03-20T03:21:19.778Z,29.17
2023-03-20T03:24:39.746Z,29.75
2023-03-20T03:27:35.763Z,29.35
2023-03-20T03:30:29.038Z,28.38
2023-03-20T03:33:23.905Z,30.08
2023-03-20T03:36:19.357Z,28.17
2023-03-20T03:39:15.518Z,28.27
2023-03-20T03:42:10.079Z,30.00
2023-03-20T03:45:04.975Z,29.85
2023-03-20T03:47:58.087Z,29.27
2023-03-20T03:50:51.422Z,30.60
2023-03-20T03:53:49.235Z,29.95
2023-03-20T03:56:41.452Z,28.40
2023-03-20T03:59:35.580Z,28.70
2023-03-20T04:02:25.502Z,29.58
2023-03-20T04:05:17.819Z,30.15
2023-03-20T04:08:08.529Z,29.45
2023-03-20T04:10:57.275Z,29.98
2023-03-20T04:13:47.109Z,29.67
2023-03-20T04:16:36.875Z,30.10
2023-03-20T04:19:26.797Z,28.45
2023-03-20T04:22:16.897Z,29.77
2023-03-20T04:25:06.966Z,30.20
2023-03-20T04:27:56.186Z,30.17
2023-03-20T04:30:57.581Z,30.50
2023-03-20T04:33:59.885Z,32.83
2023-03-20T04:37:08.402Z,29.25
2023-03-20T04:40:19.214Z,31.15
2023-03-20T04:43:09.002Z,31.55
2023-03-20T04:45:57.767Z,30.67
2023-03-20T04:48:46.856Z,31.98
2023-03-20T04:51:36.469Z,32.67
2023-03-20T04:54:26.253Z,29.55
2023-03-20T04:57:16.860Z,32.20
2023-03-20T05:00:06.913Z,30.73
2023-03-20T05:02:56.182Z,30.50
2023-03-20T05:05:45.746Z,30.73
2023-03-20T05:08:34.755Z,29.80
2023-03-20T05:11:24.227Z,30.15
2023-03-20T05:14:25.874Z,30.52
2023-03-20T05:17:33.361Z,31.27
2023-03-20T05:20:36.417Z,31.88
2023-03-20T05:23:36.685Z,31.15
2023-03-20T05:26:40.439Z,30.45
2023-03-20T05:29:49.559Z,32.05
2023-03-20T05:32:56.943Z,32.17
2023-03-20T05:35:48.249Z,32.30
2023-03-20T05:38:48.981Z,31.55
2023-03-20T05:41:57.889Z,31.17
2023-03-20T05:44:56.872Z,30.08
2023-03-20T05:47:45.710Z,30.00
2023-03-20T05:50:49.973Z,29.88
2023-03-20T05:54:01.871Z,29.73
2023-03-20T05:56:50.582Z,29.88
2023-03-20T06:00:04.486Z,28.77
2023-03-20T06:03:02.714Z,29.75
2023-03-20T06:06:14.350Z,28.38
2023-03-20T06:09:03.714Z,28.10
2023-03-20T06:11:52.448Z,28.92
2023-03-20T06:14:41.806Z,32.67
2023-03-20T06:17:32.701Z,29.45
2023-03-20T06:20:25.388Z,29.60
2023-03-20T06:23:14.473Z,28.45
2023-03-20T06:26:03.644Z,28.17
2023-03-20T06:29:02.460Z,27.10
2023-03-20T06:31:52.884Z,28.00
2023-03-20T06:34:49.921Z,27.20
2023-03-20T06:37:38.891Z,28.38
2023-03-20T06:40:33.558Z,29.63
2023-03-20T06:43:22.639Z,29.48
2023-03-20T06:46:14.221Z,30.65
2023-03-20T06:49:03.965Z,32.00
2023-03-20T06:51:54.141Z,31.55
2023-03-20T06:54:47.426Z,33.42
2023-03-20T06:57:36.333Z,31.67
2023-03-20T07:00:25.914Z,33.05
2023-03-20T07:03:15.826Z,31.67
2023-03-20T07:06:07.864Z,32.22
2023-03-20T07:08:59.880Z,31.00
2023-03-20T07:11:48.856Z,30.98
2023-03-20T07:14:38.008Z,33.08
2023-03-20T07:17:29.832Z,33.50
2023-03-20T07:20:19.200Z,32.65
2023-03-20T07:23:08.174Z,32.53
2023-03-20T07:25:59.543Z,33.00
2023-03-20T07:28:48.342Z,34.13
2023-03-20T07:31:42.982Z,34.45
2023-03-20T07:34:47.748Z,33.40
2023-03-20T07:37:36.572Z,32.15
2023-03-20T07:40:26.169Z,32.58
2023-03-20T07:43:19.214Z,32.92
2023-03-20T07:46:30.609Z,32.67
2023-03-20T07:49:24.321Z,32.58
2023-03-20T07:52:13.108Z,33.17
2023-03-20T07:55:02.177Z,32.72
2023-03-20T07:57:51.501Z,32.60
2023-03-20T08:00:42.001Z,31.67
2023-03-20T08:03:32.125Z,31.98
2023-03-20T08:06:21.217Z,31.05
2023-03-20T08:09:10.071Z,32.50
2023-03-20T08:11:58.791Z,28.90
2023-03-20T08:14:47.693Z,29.40
2023-03-20T08:17:37.823Z,29.38
2023-03-20T08:20:26.878Z,28.27
2023-03-20T08:23:15.746Z,35.65
2023-03-20T08:26:04.565Z,33.35
2023-03-20T08:28:53.994Z,27.85
2023-03-20T08:31:42.823Z,27.20
2023-03-20T08:34:35.091Z,26.75
2023-03-20T08:37:24.643Z,26.55
2023-03-20T08:40:14.185Z,29.13
2023-03-20T08:43:03.932Z,26.70
2023-03-20T08:45:54.048Z,25.48
2023-03-20T08:48:42.893Z,25.00
2023-03-20T08:51:33.277Z,26.13
2023-03-20T08:54:21.949Z,25.38
2023-03-20T08:57:14.122Z,24.58
2023-03-20T09:00:02.899Z,23.65
2023-03-20T09:02:52.311Z,24.23
2023-03-20T09:05:41.070Z,21.88
2023-03-20T09:08:32.165Z,24.38
2023-03-20T09:11:20.929Z,23.73
2023-03-20T09:14:09.629Z,22.08
2023-03-20T09:16:58.478Z,22.63
2023-03-20T09:19:47.190Z,21.55
2023-03-20T09:22:36.007Z,20.63
2023-03-20T09:25:26.230Z,19.38
2023-03-20T09:28:15.313Z,19.67
2023-03-20T09:31:04.129Z,20.65
2023-03-20T09:33:53.684Z,19.88
2023-03-20T09:36:43.816Z,20.80
2023-03-20T09:39:32.579Z,22.40
2023-03-20T09:42:37.601Z,24.27
2023-03-20T09:45:52.678Z,18.58
2023-03-20T09:48:47.709Z,26.17
2023-03-20T09:51:43.058Z,20.38
2023-03-20T09:54:52.592Z,19.70
2023-03-20T09:57:45.388Z,20.27
2023-03-20T10:00:36.828Z,20.98
2023-03-20T10:03:31.011Z,21.33
2023-03-20T10:06:20.029Z,19.25
2023-03-20T10:09:16.723Z,20.65
2023-03-20T10:12:18.288Z,19.45
2023-03-20T10:15:16.833Z,18.85
2023-03-20T10:18:15.441Z,19.80
2023-03-20T10:21:09.593Z,19.25
2023-03-20T10:24:02.272Z,19.38
2023-03-20T10:26:55.263Z,21.25
2023-03-20T10:29:53.926Z,20.73
2023-03-20T10:32:51.624Z,18.83
2023-03-20T10:35:47.215Z,20.02
2023-03-20T10:38:44.282Z,21.85
2023-03-20T10:41:37.546Z,20.70
2023-03-20T10:44:34.726Z,22.45
2023-03-20T10:47:27.500Z,24.15
2023-03-20T10:50:20.071Z,22.92
2023-03-20T10:53:11.871Z,24.13
2023-03-20T10:56:04.334Z,29.58
2023-03-20T10:58:58.824Z,23.73
2023-03-20T11:01:47.513Z,25.65
2023-03-20T11:04:39.588Z,27.42
2023-03-20T11:07:34.298Z,27.42
2023-03-20T11:10:32.101Z,25.25
2023-03-20T11:13:29.346Z,28.25
2023-03-20T11:16:25.011Z,27.38
2023-03-20T11:19:14.635Z,27.55
2023-03-20T11:22:11.489Z,34.42
2023-03-20T11:25:03.259Z,30.92
2023-03-20T11:27:52.212Z,28.42
2023-03-20T11:30:51.189Z,32.47
2023-03-20T11:33:54.538Z,33.53
2023-03-20T11:37:08.697Z,32.15
2023-03-20T11:40:02.127Z,31.30
2023-03-20T11:42:54.654Z,30.80
2023-03-20T11:45:45.897Z,26.90
2023-03-20T11:48:39.817Z,27.73
2023-03-20T11:51:28.799Z,29.67
2023-03-20T11:54:20.128Z,26.27
2023-03-20T11:57:32.874Z,23.98
2023-03-20T12:00:24.918Z,24.00
2023-03-20T12:03:37.937Z,25.40
2023-03-20T12:06:28.350Z,25.95
2023-03-20T12:09:38.974Z,25.17
2023-03-20T12:12:41.091Z,25.88
2023-03-20T12:15:34.431Z,28.63
2023-03-20T12:18:29.346Z,26.30
2023-03-20T12:21:24.781Z,26.80
2023-03-20T12:24:18.696Z,27.58
2023-03-20T12:27:19.185Z,27.42
2023-03-20T12:30:17.768Z,26.77
2023-03-20T12:33:12.521Z,25.45
2023-03-20T12:36:03.350Z,25.63
2023-03-20T12:38:56.334Z,26.88
2023-03-20T12:42:00.106Z,27.85
2023-03-20T12:44:52.179Z,27.80
2023-03-20T12:48:06.699Z,27.10
2023-03-20T12:51:01.212Z,25.42
2023-03-20T12:54:03.999Z,26.60
2023-03-20T12:57:03.901Z,27.52
2023-03-20T13:00:06.863Z,27.08
2023-03-20T13:03:07.739Z,27.35
2023-03-20T13:06:04.436Z,26.20
2023-03-20T13:09:20.438Z,25.73
2023-03-20T13:12:17.172Z,26.00
2023-03-20T13:15:21.820Z,29.80
2023-03-20T13:18:19.065Z,26.23
2023-03-20T13:21:12.035Z,22.98
2023-03-20T13:24:13.055Z,22.60
2023-03-20T13:27:13.091Z,22.25
2023-03-20T13:30:08.651Z,26.65
2023-03-20T13:33:15.554Z,22.85
2023-03-20T13:36:14.550Z,22.40
2023-03-20T13:39:12.351Z,22.08
2023-03-20T13:42:03.664Z,24.67
2023-03-20T13:44:55.607Z,27.42
2023-03-20T13:47:46.860Z,26.85
2023-03-20T13:50:45.947Z,29.08
2023-03-20T13:53:45.863Z,28.98
2023-03-20T13:56:42.165Z,30.10
2023-03-20T13:59:46.288Z,30.45
2023-03-20T14:02:46.665Z,30.05
2023-03-20T14:05:40.041Z,30.02
2023-03-20T14:08:36.761Z,30.55
2023-03-20T14:11:39.816Z,29.88
2023-03-20T14:14:31.006Z,30.48
2023-03-20T14:17:25.025Z,28.35
2023-03-20T14:20:24.084Z,26.20
2023-03-20T14:23:20.662Z,26.10
2023-03-20T14:26:20.381Z,25.85
2023-03-20T14:29:33.930Z,25.30
2023-03-20T14:32:52.999Z,25.27
2023-03-20T14:35:45.682Z,31.42
2023-03-20T14:38:41.268Z,24.33
2023-03-20T14:41:36.979Z,23.45
2023-03-20T14:44:39.917Z,25.33
2023-03-20T14:47:40.371Z,22.92
2023-03-20T14:50:34.236Z,21.92
2023-03-20T14:53:25.078Z,22.88
2023-03-20T14:56:15.838Z,23.60
2023-03-20T14:59:06.822Z,23.85
2023-03-20T15:02:00.153Z,25.63
2023-03-20T15:04:49.139Z,24.20
2023-03-20T15:07:41.156Z,21.75
2023-03-20T15:10:31.094Z,18.63
2023-03-20T15:13:20.747Z,17.73
2023-03-20T15:16:11.830Z,18.42
2023-03-20T15:19:02.273Z,16.58
2023-03-20T15:21:51.501Z,16.95
2023-03-20T15:24:40.435Z,16.95
2023-03-20T15:27:31.166Z,16.33
2023-03-20T15:30:22.843Z,15.98
2023-03-20T15:33:20.007Z,15.63
2023-03-20T15:36:12.984Z,15.57
2023-03-20T15:39:09.785Z,14.82
2023-03-20T15:42:03.822Z,14.90
2023-03-20T15:44:55.929Z,14.75
2023-03-20T15:47:44.760Z,13.80
2023-03-20T15:50:35.589Z,12.18
2023-03-20T15:53:32.299Z,12.20
2023-03-20T15:56:25.788Z,11.63
2023-03-20T15:59:17.349Z,11.50
2023-03-20T16:02:07.042Z,10.63
2023-03-20T16:04:56.494Z,9.85
2023-03-20T16:07:45.534Z,9.75
2023-03-20T16:10:37.916Z,9.82
2023-03-20T16:13:31.190Z,10.45
2023-03-20T16:16:24.214Z,11.10
2023-03-20T16:19:15.404Z,10.65
2023-03-20T16:22:14.925Z,9.80
2023-03-20T16:25:04.699Z,9.32
2023-03-20T16:27:55.563Z,9.35
2023-03-20T16:30:44.391Z,8.95
2023-03-20T16:33:33.424Z,8.60
2023-03-20T16:36:28.201Z,8.52
2023-03-20T16:39:22.033Z,9.38
2023-03-20T16:42:20.435Z,9.85
2023-03-20T16:45:29.531Z,9.60
2023-03-20T16:48:33.260Z,9.75
2023-03-20T16:51:24.413Z,9.43
2023-03-20T16:54:21.509Z,8.90
2023-03-20T16:57:15.079Z,9.35
2023-03-20T17:00:08.488Z,8.57
2023-03-20T17:03:08.449Z,9.18
2023-03-20T17:05:59.280Z,8.93
2023-03-20T17:08:51.259Z,8.25
2023-03-20T17:11:45.844Z,8.75
2023-03-20T17:14:34.671Z,9.07
2023-03-20T17:17:25.131Z,7.93
2023-03-20T17:20:21.182Z,8.02
2023-03-20T17:23:14.757Z,7.78
2023-03-20T17:26:06.121Z,8.80
2023-03-20T17:28:56.060Z,10.43
2023-03-20T17:31:44.906Z,11.40
2023-03-20T17:34:34.054Z,12.52
2023-03-20T17:37:30.027Z,12.73
2023-03-20T17:40:21.262Z,15.30
2023-03-20T17:43:12.475Z,16.67
2023-03-20T17:46:01.377Z,17.35
2023-03-20T17:48:51.466Z,19.65
2023-03-20T17:51:43.297Z,19.80
2023-03-20T17:54:33.660Z,20.20
2023-03-20T17:57:25.156Z,20.65
2023-03-20T18:00:18.828Z,20.75
2023-03-20T18:03:07.529Z,21.17
2023-03-20T18:05:56.663Z,22.23
2023-03-20T18:08:45.354Z,22.98
2023-03-20T18:11:35.523Z,22.35
2023-03-20T18:14:24.488Z,22.98
2023-03-20T18:17:14.302Z,23.45
2023-03-20T18:20:03.963Z,24.00
2023-03-20T18:22:52.703Z,23.70
2023-03-20T18:25:41.847Z,23.02
2023-03-20T18:28:32.090Z,23.45
2023-03-20T18:31:21.086Z,23.48
2023-03-20T18:34:09.902Z,24.45
2023-03-20T18:36:58.850Z,24.05
2023-03-20T18:39:47.586Z,24.50
2023-03-20T18:42:36.382Z,23.83
2023-03-20T18:45:28.888Z,25.02
2023-03-20T18:48:18.231Z,24.67
2023-03-20T18:51:07.284Z,25.67
2023-03-20T18:53:55.959Z,25.70
2023-03-20T18:56:44.757Z,25.25
2023-03-20T18:59:33.799Z,24.95
2023-03-20T19:02:24.798Z,26.25
2023-03-20T19:05:13.971Z,26.08
2023-03-20T19:08:03.743Z,25.48
2023-03-20T19:10:52.840Z,24.65
2023-03-20T19:13:47.427Z,25.35
2023-03-20T19:16:38.217Z,24.42
2023-03-20T19:19:29.102Z,24.98
2023-03-20T19:22:28.978Z,23.85
2023-03-20T19:25:18.500Z,23.52
2023-03-20T19:28:07.990Z,25.35
2023-03-20T19:30:57.216Z,24.02
2023-03-20T19:33:46.186Z,23.48
2023-03-20T19:39:51.137Z,26.52
2023-03-20T19:42:59.116Z,25.92
2023-03-20T19:45:49.920Z,28.70
2023-03-20T19:48:49.210Z,29.17
2023-03-20T19:51:40.765Z,31.55
2023-03-20T19:54:29.689Z,31.55
2023-03-20T19:57:18.565Z,32.35
2023-03-20T20:00:54.340Z,34.33
2023-03-20T20:03:20.219Z,34.58
2023-03-20T20:06:09.885Z,35.40
2023-03-20T20:09:01.481Z,35.92
2023-03-20T20:11:50.315Z,34.45
2023-03-20T20:14:39.035Z,37.00
2023-03-20T20:17:27.773Z,35.75
2023-03-20T20:20:20.904Z,36.08
2023-03-20T20:23:15.430Z,37.38
2023-03-20T20:26:07.998Z,36.97
2023-03-20T20:28:56.926Z,38.20
2023-03-20T20:31:45.787Z,36.42
2023-03-20T20:40:52.568Z,36.75
2023-03-20T20:44:14.207Z,37.00
2023-03-20T20:46:51.710Z,35.13
2023-03-20T20:49:40.708Z,35.33
2023-03-20T20:52:29.471Z,36.17
2023-03-20T20:55:36.733Z,36.03
2023-03-20T20:58:26.193Z,35.20
2023-03-20T21:01:16.351Z,34.95
2023-03-20T21:04:05.126Z,32.17
2023-03-20T21:07:11.187Z,31.73
2023-03-20T21:10:01.134Z,32.00
2023-03-20T21:12:59.259Z,30.30
2023-03-20T21:15:48.724Z,30.33
2023-03-20T21:18:39.131Z,30.63
2023-03-20T21:21:27.929Z,29.10
2023-03-20T21:24:31.702Z,26.80
2023-03-20T21:27:22.792Z,23.38
2023-03-20T21:30:12.676Z,23.95
2023-03-20T21:33:02.280Z,22.45
2023-03-20T21:35:54.083Z,23.83
2023-03-20T21:41:51.919Z,22.80
2023-03-20T21:48:38.406Z,22.02
2023-03-20T21:52:05.904Z,22.23
2023-03-20T21:58:00.208Z,19.80
2023-03-20T22:04:19.060Z,21.52
2023-03-20T22:23:21.657Z,20.55
2023-03-20T22:26:32.236Z,20.63
2023-03-20T22:32:40.939Z,20.52
2023-03-20T22:39:09.736Z,21.60
2023-03-20T22:42:13.731Z,21.13
2023-03-20T22:47:49.938Z,22.23
2023-03-20T22:50:38.954Z,23.27
2023-03-20T22:53:31.198Z,24.00
2023-03-20T22:56:19.924Z,22.95
2023-03-20T22:59:08.652Z,23.92
2023-03-20T23:01:57.370Z,24.95
2023-03-20T23:04:46.337Z,23.58
2023-03-20T23:07:35.122Z,23.80
2023-03-20T23:10:25.345Z,23.17
2023-03-20T23:13:14.815Z,23.77
2023-03-20T23:16:03.954Z,23.35
2023-03-20T23:18:52.692Z,22.15
2023-03-20T23:21:41.554Z,24.10
2023-03-20T23:24:30.322Z,23.75
2023-03-20T23:27:21.659Z,24.10
2023-03-20T23:30:11.621Z,23.30
2023-03-20T23:33:00.409Z,23.80
2023-03-20T23:35:51.251Z,23.60
2023-03-20T23:38:40.190Z,23.25
2023-03-20T23:41:57.606Z,23.38
2023-03-20T23:44:44.134Z,24.23
2023-03-20T23:47:44.835Z,24.10
2023-03-20T23:50:46.101Z,23.40
2023-03-20T23:53:40.809Z,23.98
2023-03-20T23:56:29.668Z,24.33
2023-03-20T23:59:22.298Z,24.70
